Repto Daguey, Puerto Rico
Current Conditions -  °F | °C
As of 2:50 AM on Friday 28 Nov 2014 (Local Time) from TJBQ Reporting Station
Clear Clear  
Wind Chill: 22°   Ceiling: Unl
Heat Index: 22°   Visibility: 10mi
Dew Point: 18°   Wind: 0mph
Humidity: 78%   Direction: NA
Pressure: 29.94"   Gusts: NA
Location:  18.2859°N, 67.1412°W
Report Text: TJBQ 280650Z 00000KT 10SM SKC 22/18 A2994 RMK RWY 08 ATIS O
Loading
Personal Weather Stations






























Interactive Weather Map New forecast layout! Learn more

10-Day Weather Forecast

Advertisements
Track Severe Weather on mobile